ENSO/SRP METAR and TAF weather

Enter ICAO airport designator
Station Type Date Time Source
ENSO METAR 2019/03/20 18:20 UTC NOAA

ENSO 201820Z 18007KT 140V220 9999 SCT004 BKN012 06/05 Q1021


Station Type Date Time Source
ENSO Decoded METAR 2019/03/20 18:20 UTC NOAA

Stord / Soerstokken, Norway (ENSO) 59-48N 005-21E
Mar 20, 2019 - 02:20 PM EDT / 2019.03.20 1820 UTC
Wind: from the S (180 degrees) at 8 MPH (7 KT) (direction variable):0
Visibility: greater than 7 mile(s):0
Sky conditions: mostly cloudy
Temperature: 42 F (6 C)
Dew Point: 41 F (5 C)
Relative Humidity: 93%
Pressure (altimeter): 30.15 in. Hg (1021 hPa)
ob: ENSO 201820Z 18007KT 140V220 9999 SCT004 BKN012 06/05 Q1021
cycle: 18

Station Type Date Time Source
ENSO TAF UTC NOAA

Error!

Example: see airport list